Alton, UT

3:36 PM MDT on September 17, 2014 (GMT -0600)
Swains Creek | Change Station
CLOSE
Current Station
Personal Weather Station
Location: Swains Creek, UT
Elevation: 7990 ft
Nearby Weather Stations

Elev 7990 ft 37.48 °N, 112.61 °W | Updated 35 minutes ago

Clear
Clear
77.4 °F
Feels Like 78 °F
N
6.3
Wind Variable Wind from NE
Gusts 6.3 mph

Today
High -- | Low -- °F
--% Chance of Precip.
Yesterday
High -- | Low -- °F
Precip. -- in
7:14 AM 7:34 PM
Waning Crescent, 33% visible
Pressure 29.89 in
Visibility 10.0 miles
Clouds Mostly Cloudy 9000 ft
Heat Index 78 °F
Dew Point 40 °F
Humidity 26%
Rainfall 0.00 in
Snow Depth 0 in , 0 in , 0 in
UV 4 out of 12
Pollen 6.10 out of 12
Air Quality Not available.
Flu Activity Not available.
METAR KBCE 172053Z AUTO 11011KT 10SM BKN090 22/08 A3023 RMK AO2 LTG DSNT N AND W SLP120 T02170083 58012

More Conditions Fewer Conditions

Pressure 29.89 in
Visibility 10.0 miles
Clouds Mostly Cloudy 9000 ft
Heat Index 78 °F
Dew Point 40 °F
Humidity 26%
Rainfall 0.00 in
Snow Depth 0 in , 0 in , 0 in
UV 4 out of 12
Pollen 6.10 out of 12
Air Quality Not available.
Flu Activity Not available.
METAR KBCE 172053Z AUTO 11011KT 10SM BKN090 22/08 A3023 RMK AO2 LTG DSNT N AND W SLP120 T02170083 58012

More Conditions Fewer Conditions

10-Day Weather Forecast

Almanac

Astronomy

Sep. 17, 2014 Rise Set
Actual Time 7:14 AM MDT 7:34 PM MDT
Civil Twilight 6:47 AM MDT 8:01 PM MDT
Nautical Twilight 6:17 AM MDT 8:31 PM MDT
Astronomical Twilight 5:45 AM MDT 9:02 PM MDT
Moon 1:22 AM MDT 3:42 PM MDT
Length of Visible Light 13h 13m
Length of Day
12h 20m
Tomorrow will be 2m 22s shorter.
Waning Crescent, 33% of the Moon is Illuminated
Today
Waning Crescent
Sep 24
New
Oct 1
First Quarter
Oct 8
Full
Oct 15
Last Quarter

Today's Extremes

State Highs State Lows

Community

WunderPhotos

Upload Photos

1,754,170 photos uploaded!

Nearby

Snow Depth

Station Depth Elevation
Trial Lake 0 in 9960 ft
Gooseberry R.S. 0 in 7920 ft
Merchant Valley 0 in 8750 ft
Long Valley Jct 1 in 7360 ft
Lakefork #1 1 in 10100 ft

Earthquake Activity

City Distance Mag. Time & Date
No recent earthquake activity has been reported nearby.
Minimum magnitude displayed is 2.5.

Coastal Water Temperatures

Place Temperature
No Stations Reporting

Nearby Weather Stations